sensor_id;sensor_type;location;lat;lon;timestamp;temperature;humidity
62575;DHT22;53112;45.602;11.904;2023-04-15T00:01:28;22.10;49.40
62575;DHT22;53112;45.602;11.904;2023-04-15T00:03:54;22.10;49.20
62575;DHT22;53112;45.602;11.904;2023-04-15T00:06:21;22.10;48.70
62575;DHT22;53112;45.602;11.904;2023-04-15T00:08:48;22.10;48.10
62575;DHT22;53112;45.602;11.904;2023-04-15T00:11:15;22.10;47.80
62575;DHT22;53112;45.602;11.904;2023-04-15T00:13:42;22.10;47.10
62575;DHT22;53112;45.602;11.904;2023-04-15T00:16:09;22.10;47.70
62575;DHT22;53112;45.602;11.904;2023-04-15T00:18:36;22.10;47.60
62575;DHT22;53112;45.602;11.904;2023-04-15T00:21:03;22.10;48.20
62575;DHT22;53112;45.602;11.904;2023-04-15T00:23:29;22.10;48.80
62575;DHT22;53112;45.602;11.904;2023-04-15T00:25:56;22.10;48.90
62575;DHT22;53112;45.602;11.904;2023-04-15T00:28:22;22.10;48.80
62575;DHT22;53112;45.602;11.904;2023-04-15T00:30:48;22.10;48.20
62575;DHT22;53112;45.602;11.904;2023-04-15T00:33:14;22.10;48.10
62575;DHT22;53112;45.602;11.904;2023-04-15T00:35:41;22.10;48.30
62575;DHT22;53112;45.602;11.904;2023-04-15T00:38:07;22.10;48.70
62575;DHT22;53112;45.602;11.904;2023-04-15T00:40:33;22.00;49.10
62575;DHT22;53112;45.602;11.904;2023-04-15T00:43:00;22.10;49.10
62575;DHT22;53112;45.602;11.904;2023-04-15T00:45:26;22.00;48.90
62575;DHT22;53112;45.602;11.904;2023-04-15T00:47:53;22.10;48.40
62575;DHT22;53112;45.602;11.904;2023-04-15T00:50:19;22.00;48.30
62575;DHT22;53112;45.602;11.904;2023-04-15T00:52:45;22.00;48.30
62575;DHT22;53112;45.602;11.904;2023-04-15T00:55:11;22.00;48.50
62575;DHT22;53112;45.602;11.904;2023-04-15T00:57:38;22.00;48.70
62575;DHT22;53112;45.602;11.904;2023-04-15T01:00:05;22.00;49.00
62575;DHT22;53112;45.602;11.904;2023-04-15T01:02:36;22.00;49.20
62575;DHT22;53112;45.602;11.904;2023-04-15T01:05:03;22.00;49.30
62575;DHT22;53112;45.602;11.904;2023-04-15T01:07:30;22.00;49.30
62575;DHT22;53112;45.602;11.904;2023-04-15T01:09:56;22.00;49.30
62575;DHT22;53112;45.602;11.904;2023-04-15T01:12:24;22.00;49.40
62575;DHT22;53112;45.602;11.904;2023-04-15T01:14:51;22.00;49.20
62575;DHT22;53112;45.602;11.904;2023-04-15T01:17:18;22.00;49.30
62575;DHT22;53112;45.602;11.904;2023-04-15T01:19:44;22.00;49.30
62575;DHT22;53112;45.602;11.904;2023-04-15T01:22:10;22.00;49.40
62575;DHT22;53112;45.602;11.904;2023-04-15T01:24:36;22.00;49.50
62575;DHT22;53112;45.602;11.904;2023-04-15T01:27:03;22.00;49.50
62575;DHT22;53112;45.602;11.904;2023-04-15T01:29:31;22.00;49.50
62575;DHT22;53112;45.602;11.904;2023-04-15T01:31:57;22.00;49.50
62575;DHT22;53112;45.602;11.904;2023-04-15T01:34:23;22.00;49.50
62575;DHT22;53112;45.602;11.904;2023-04-15T01:36:49;22.00;49.50
62575;DHT22;53112;45.602;11.904;2023-04-15T01:39:16;22.00;49.50
62575;DHT22;53112;45.602;11.904;2023-04-15T01:41:42;22.00;49.50
62575;DHT22;53112;45.602;11.904;2023-04-15T01:44:08;21.90;49.60
62575;DHT22;53112;45.602;11.904;2023-04-15T01:46:35;22.00;49.50
62575;DHT22;53112;45.602;11.904;2023-04-15T01:49:01;22.00;49.40
62575;DHT22;53112;45.602;11.904;2023-04-15T01:51:26;21.90;49.50
62575;DHT22;53112;45.602;11.904;2023-04-15T01:53:53;21.90;49.40
62575;DHT22;53112;45.602;11.904;2023-04-15T01:56:21;21.90;49.40
62575;DHT22;53112;45.602;11.904;2023-04-15T01:58:49;22.00;49.40
62575;DHT22;53112;45.602;11.904;2023-04-15T02:01:15;21.90;49.10
62575;DHT22;53112;45.602;11.904;2023-04-15T02:03:41;21.90;49.10
62575;DHT22;53112;45.602;11.904;2023-04-15T02:06:07;21.90;49.30
62575;DHT22;53112;45.602;11.904;2023-04-15T02:08:33;21.90;49.50
62575;DHT22;53112;45.602;11.904;2023-04-15T02:10:59;21.90;49.20
62575;DHT22;53112;45.602;11.904;2023-04-15T02:13:25;21.90;49.10
62575;DHT22;53112;45.602;11.904;2023-04-15T02:15:53;21.90;49.00
62575;DHT22;53112;45.602;11.904;2023-04-15T02:18:19;21.90;48.80
62575;DHT22;53112;45.602;11.904;2023-04-15T02:20:46;21.90;48.90
62575;DHT22;53112;45.602;11.904;2023-04-15T02:23:12;21.90;48.90
62575;DHT22;53112;45.602;11.904;2023-04-15T02:25:38;21.80;48.80
62575;DHT22;53112;45.602;11.904;2023-04-15T02:28:05;21.90;48.90
62575;DHT22;53112;45.602;11.904;2023-04-15T02:30:32;21.90;48.80
62575;DHT22;53112;45.602;11.904;2023-04-15T02:32:59;21.90;48.40
62575;DHT22;53112;45.602;11.904;2023-04-15T02:35:26;21.90;48.50
62575;DHT22;53112;45.602;11.904;2023-04-15T02:37:52;21.80;48.60
62575;DHT22;53112;45.602;11.904;2023-04-15T02:40:18;21.80;48.60
62575;DHT22;53112;45.602;11.904;2023-04-15T02:42:44;21.80;48.70
62575;DHT22;53112;45.602;11.904;2023-04-15T02:45:10;21.80;48.60
62575;DHT22;53112;45.602;11.904;2023-04-15T02:47:37;21.80;48.60
62575;DHT22;53112;45.602;11.904;2023-04-15T02:50:10;21.80;48.40
62575;DHT22;53112;45.602;11.904;2023-04-15T02:52:40;21.80;48.70
62575;DHT22;53112;45.602;11.904;2023-04-15T02:55:07;21.80;48.60
62575;DHT22;53112;45.602;11.904;2023-04-15T02:57:34;21.80;48.70
62575;DHT22;53112;45.602;11.904;2023-04-15T03:00:06;21.80;48.60
62575;DHT22;53112;45.602;11.904;2023-04-15T03:02:35;21.80;48.90
62575;DHT22;53112;45.602;11.904;2023-04-15T03:05:02;21.70;48.80
62575;DHT22;53112;45.602;11.904;2023-04-15T03:07:27;21.70;48.90
62575;DHT22;53112;45.602;11.904;2023-04-15T03:09:53;21.80;48.70
62575;DHT22;53112;45.602;11.904;2023-04-15T03:12:19;21.80;48.90
62575;DHT22;53112;45.602;11.904;2023-04-15T03:14:46;21.70;49.20
62575;DHT22;53112;45.602;11.904;2023-04-15T03:17:12;21.70;49.20
62575;DHT22;53112;45.602;11.904;2023-04-15T03:19:38;21.70;49.30
62575;DHT22;53112;45.602;11.904;2023-04-15T03:22:03;21.70;49.30
62575;DHT22;53112;45.602;11.904;2023-04-15T03:24:30;21.70;49.30
62575;DHT22;53112;45.602;11.904;2023-04-15T03:26:56;21.70;49.40
62575;DHT22;53112;45.602;11.904;2023-04-15T03:29:23;21.70;49.40
62575;DHT22;53112;45.602;11.904;2023-04-15T03:31:48;21.70;49.30
62575;DHT22;53112;45.602;11.904;2023-04-15T03:34:15;21.70;49.40
62575;DHT22;53112;45.602;11.904;2023-04-15T03:36:41;21.70;49.50
62575;DHT22;53112;45.602;11.904;2023-04-15T03:39:07;21.70;49.30
62575;DHT22;53112;45.602;11.904;2023-04-15T03:43:58;21.70;49.20
62575;DHT22;53112;45.602;11.904;2023-04-15T03:46:24;21.70;49.20
62575;DHT22;53112;45.602;11.904;2023-04-15T03:48:50;21.70;49.10
62575;DHT22;53112;45.602;11.904;2023-04-15T03:51:16;21.70;48.90
62575;DHT22;53112;45.602;11.904;2023-04-15T03:53:42;21.70;49.10
62575;DHT22;53112;45.602;11.904;2023-04-15T03:56:08;21.70;49.20
62575;DHT22;53112;45.602;11.904;2023-04-15T03:58:34;21.70;49.40
62575;DHT22;53112;45.602;11.904;2023-04-15T04:01:00;21.70;49.50
62575;DHT22;53112;45.602;11.904;2023-04-15T04:03:29;21.70;49.40
62575;DHT22;53112;45.602;11.904;2023-04-15T04:05:55;21.70;49.50
62575;DHT22;53112;45.602;11.904;2023-04-15T04:08:21;21.60;49.50
62575;DHT22;53112;45.602;11.904;2023-04-15T04:10:47;21.60;49.60
62575;DHT22;53112;45.602;11.904;2023-04-15T04:13:13;21.60;49.60
62575;DHT22;53112;45.602;11.904;2023-04-15T04:15:39;21.70;49.60
62575;DHT22;53112;45.602;11.904;2023-04-15T04:18:05;21.70;49.70
62575;DHT22;53112;45.602;11.904;2023-04-15T04:20:31;21.60;49.70
62575;DHT22;53112;45.602;11.904;2023-04-15T04:22:57;21.70;49.70
62575;DHT22;53112;45.602;11.904;2023-04-15T04:25:23;21.60;49.20
62575;DHT22;53112;45.602;11.904;2023-04-15T04:27:49;21.60;49.20
62575;DHT22;53112;45.602;11.904;2023-04-15T04:30:15;21.70;49.20
62575;DHT22;53112;45.602;11.904;2023-04-15T04:32:41;21.60;49.20
62575;DHT22;53112;45.602;11.904;2023-04-15T04:35:07;21.60;49.10
62575;DHT22;53112;45.602;11.904;2023-04-15T04:37:33;21.60;49.00
62575;DHT22;53112;45.602;11.904;2023-04-15T04:39:59;21.60;49.30
62575;DHT22;53112;45.602;11.904;2023-04-15T04:42:25;21.60;49.20
62575;DHT22;53112;45.602;11.904;2023-04-15T04:44:52;21.60;49.10
62575;DHT22;53112;45.602;11.904;2023-04-15T04:47:18;21.70;49.00
62575;DHT22;53112;45.602;11.904;2023-04-15T04:49:44;21.60;49.30
62575;DHT22;53112;45.602;11.904;2023-04-15T04:52:10;21.60;49.60
62575;DHT22;53112;45.602;11.904;2023-04-15T04:54:36;21.60;49.60
62575;DHT22;53112;45.602;11.904;2023-04-15T04:57:02;21.60;49.50
62575;DHT22;53112;45.602;11.904;2023-04-15T04:59:28;21.60;49.70
62575;DHT22;53112;45.602;11.904;2023-04-15T05:01:54;21.60;49.80
62575;DHT22;53112;45.602;11.904;2023-04-15T05:04:20;21.60;49.80
62575;DHT22;53112;45.602;11.904;2023-04-15T05:06:46;21.60;49.90
62575;DHT22;53112;45.602;11.904;2023-04-15T05:09:12;21.60;50.00
62575;DHT22;53112;45.602;11.904;2023-04-15T05:11:38;21.60;50.00
62575;DHT22;53112;45.602;11.904;2023-04-15T05:14:03;21.60;50.00
62575;DHT22;53112;45.602;11.904;2023-04-15T05:16:29;21.70;50.00
62575;DHT22;53112;45.602;11.904;2023-04-15T05:18:55;21.70;49.90
62575;DHT22;53112;45.602;11.904;2023-04-15T05:21:21;21.70;49.90
62575;DHT22;53112;45.602;11.904;2023-04-15T05:23:47;21.70;50.00
62575;DHT22;53112;45.602;11.904;2023-04-15T05:26:13;21.70;50.10
62575;DHT22;53112;45.602;11.904;2023-04-15T05:28:39;21.70;50.50
62575;DHT22;53112;45.602;11.904;2023-04-15T05:31:05;21.70;50.90
62575;DHT22;53112;45.602;11.904;2023-04-15T05:33:32;21.70;51.00
62575;DHT22;53112;45.602;11.904;2023-04-15T05:35:58;21.70;50.90
62575;DHT22;53112;45.602;11.904;2023-04-15T05:38:23;21.70;50.90
62575;DHT22;53112;45.602;11.904;2023-04-15T05:40:49;21.70;50.80
62575;DHT22;53112;45.602;11.904;2023-04-15T05:43:15;21.70;50.80
62575;DHT22;53112;45.602;11.904;2023-04-15T05:45:41;21.70;50.80
62575;DHT22;53112;45.602;11.904;2023-04-15T05:48:07;21.80;50.80
62575;DHT22;53112;45.602;11.904;2023-04-15T05:50:33;21.80;50.70
62575;DHT22;53112;45.602;11.904;2023-04-15T05:52:59;21.70;50.70
62575;DHT22;53112;45.602;11.904;2023-04-15T05:55:25;21.80;50.60
62575;DHT22;53112;45.602;11.904;2023-04-15T05:57:52;21.80;50.50
62575;DHT22;53112;45.602;11.904;2023-04-15T06:00:18;21.80;50.40
62575;DHT22;53112;45.602;11.904;2023-04-15T06:02:44;21.80;50.40
62575;DHT22;53112;45.602;11.904;2023-04-15T06:05:10;21.80;50.40
62575;DHT22;53112;45.602;11.904;2023-04-15T06:07:37;21.80;50.30
62575;DHT22;53112;45.602;11.904;2023-04-15T06:10:03;21.80;50.20
62575;DHT22;53112;45.602;11.904;2023-04-15T06:12:30;21.90;50.10
62575;DHT22;53112;45.602;11.904;2023-04-15T06:14:56;21.90;50.00
62575;DHT22;53112;45.602;11.904;2023-04-15T06:17:22;21.90;49.90
62575;DHT22;53112;45.602;11.904;2023-04-15T06:19:48;21.90;49.90
62575;DHT22;53112;45.602;11.904;2023-04-15T06:22:16;22.00;49.80
62575;DHT22;53112;45.602;11.904;2023-04-15T06:24:42;22.00;49.80
62575;DHT22;53112;45.602;11.904;2023-04-15T06:27:08;22.00;49.70
62575;DHT22;53112;45.602;11.904;2023-04-15T06:29:34;22.00;49.60
62575;DHT22;53112;45.602;11.904;2023-04-15T06:32:00;22.00;49.50
62575;DHT22;53112;45.602;11.904;2023-04-15T06:34:26;22.10;49.30
62575;DHT22;53112;45.602;11.904;2023-04-15T06:36:52;22.10;49.20
62575;DHT22;53112;45.602;11.904;2023-04-15T06:39:19;22.10;49.10
62575;DHT22;53112;45.602;11.904;2023-04-15T06:41:45;22.20;49.00
62575;DHT22;53112;45.602;11.904;2023-04-15T06:44:11;22.20;48.90
62575;DHT22;53112;45.602;11.904;2023-04-15T06:46:37;22.20;48.80
62575;DHT22;53112;45.602;11.904;2023-04-15T06:49:03;22.20;48.80
62575;DHT22;53112;45.602;11.904;2023-04-15T06:51:30;22.20;48.70
62575;DHT22;53112;45.602;11.904;2023-04-15T06:53:56;22.20;48.60
62575;DHT22;53112;45.602;11.904;2023-04-15T06:56:22;22.20;48.60
62575;DHT22;53112;45.602;11.904;2023-04-15T06:58:48;22.30;48.50
62575;DHT22;53112;45.602;11.904;2023-04-15T07:01:14;22.30;48.50
62575;DHT22;53112;45.602;11.904;2023-04-15T07:03:40;22.30;48.40
62575;DHT22;53112;45.602;11.904;2023-04-15T07:06:06;22.30;48.30
62575;DHT22;53112;45.602;11.904;2023-04-15T07:08:34;22.40;48.20
62575;DHT22;53112;45.602;11.904;2023-04-15T07:11:00;22.40;48.10
62575;DHT22;53112;45.602;11.904;2023-04-15T07:13:26;22.40;48.20
62575;DHT22;53112;45.602;11.904;2023-04-15T07:15:53;22.40;48.10
62575;DHT22;53112;45.602;11.904;2023-04-15T07:18:18;22.40;48.00
62575;DHT22;53112;45.602;11.904;2023-04-15T07:20:45;22.30;48.00
62575;DHT22;53112;45.602;11.904;2023-04-15T07:23:11;22.30;47.90
62575;DHT22;53112;45.602;11.904;2023-04-15T07:25:37;22.40;48.00
62575;DHT22;53112;45.602;11.904;2023-04-15T07:28:03;22.40;48.00
62575;DHT22;53112;45.602;11.904;2023-04-15T07:30:29;22.40;47.60
62575;DHT22;53112;45.602;11.904;2023-04-15T07:32:55;22.30;47.70
62575;DHT22;53112;45.602;11.904;2023-04-15T07:35:21;22.40;47.80
62575;DHT22;53112;45.602;11.904;2023-04-15T07:37:47;22.30;47.20
62575;DHT22;53112;45.602;11.904;2023-04-15T07:40:14;22.40;47.70
62575;DHT22;53112;45.602;11.904;2023-04-15T07:42:40;22.40;47.80
62575;DHT22;53112;45.602;11.904;2023-04-15T07:45:07;22.40;47.20
62575;DHT22;53112;45.602;11.904;2023-04-15T07:47:33;22.40;46.70
62575;DHT22;53112;45.602;11.904;2023-04-15T07:49:59;22.40;47.40
62575;DHT22;53112;45.602;11.904;2023-04-15T07:52:26;22.40;47.50
62575;DHT22;53112;45.602;11.904;2023-04-15T07:54:52;22.40;47.60
62575;DHT22;53112;45.602;11.904;2023-04-15T07:57:18;22.40;47.60
62575;DHT22;53112;45.602;11.904;2023-04-15T07:59:44;22.40;47.20
62575;DHT22;53112;45.602;11.904;2023-04-15T08:02:16;22.50;47.20
62575;DHT22;53112;45.602;11.904;2023-04-15T08:04:42;22.50;46.80
62575;DHT22;53112;45.602;11.904;2023-04-15T08:07:08;22.50;46.60
62575;DHT22;53112;45.602;11.904;2023-04-15T08:09:34;22.50;46.70
62575;DHT22;53112;45.602;11.904;2023-04-15T08:12:00;22.50;47.00
62575;DHT22;53112;45.602;11.904;2023-04-15T08:14:26;22.50;46.80
62575;DHT22;53112;45.602;11.904;2023-04-15T08:16:52;22.50;46.40
62575;DHT22;53112;45.602;11.904;2023-04-15T08:19:18;22.50;47.10
62575;DHT22;53112;45.602;11.904;2023-04-15T08:21:43;22.50;47.20
62575;DHT22;53112;45.602;11.904;2023-04-15T08:24:10;22.50;47.20
62575;DHT22;53112;45.602;11.904;2023-04-15T08:26:36;22.60;47.30
62575;DHT22;53112;45.602;11.904;2023-04-15T08:29:02;22.60;47.30
62575;DHT22;53112;45.602;11.904;2023-04-15T08:31:28;22.60;47.60
62575;DHT22;53112;45.602;11.904;2023-04-15T08:33:56;22.60;47.20
62575;DHT22;53112;45.602;11.904;2023-04-15T08:36:22;22.60;46.80
62575;DHT22;53112;45.602;11.904;2023-04-15T08:38:48;22.60;47.10
62575;DHT22;53112;45.602;11.904;2023-04-15T08:41:21;22.60;46.80
62575;DHT22;53112;45.602;11.904;2023-04-15T08:44:00;22.60;46.80
62575;DHT22;53112;45.602;11.904;2023-04-15T08:46:26;22.60;45.60
62575;DHT22;53112;45.602;11.904;2023-04-15T08:48:56;22.60;45.70
62575;DHT22;53112;45.602;11.904;2023-04-15T08:51:22;22.60;45.60
62575;DHT22;53112;45.602;11.904;2023-04-15T08:53:49;22.60;45.40
62575;DHT22;53112;45.602;11.904;2023-04-15T08:56:15;22.60;46.30
62575;DHT22;53112;45.602;11.904;2023-04-15T08:58:45;22.60;46.00
62575;DHT22;53112;45.602;11.904;2023-04-15T09:01:12;22.60;46.30
62575;DHT22;53112;45.602;11.904;2023-04-15T09:03:38;22.60;46.00
62575;DHT22;53112;45.602;11.904;2023-04-15T09:06:05;22.60;45.80
62575;DHT22;53112;45.602;11.904;2023-04-15T09:08:32;22.60;45.80
62575;DHT22;53112;45.602;11.904;2023-04-15T09:11:00;22.60;45.80
62575;DHT22;53112;45.602;11.904;2023-04-15T09:13:25;22.60;46.70
62575;DHT22;53112;45.602;11.904;2023-04-15T09:15:52;22.60;46.50
62575;DHT22;53112;45.602;11.904;2023-04-15T09:18:32;22.60;45.70
62575;DHT22;53112;45.602;11.904;2023-04-15T09:21:15;22.60;46.10
62575;DHT22;53112;45.602;11.904;2023-04-15T09:23:54;22.60;46.20
62575;DHT22;53112;45.602;11.904;2023-04-15T09:26:33;22.60;45.20
62575;DHT22;53112;45.602;11.904;2023-04-15T09:29:07;22.60;45.90
62575;DHT22;53112;45.602;11.904;2023-04-15T09:31:34;22.60;45.20
62575;DHT22;53112;45.602;11.904;2023-04-15T09:34:01;22.60;46.00
62575;DHT22;53112;45.602;11.904;2023-04-15T09:36:27;22.60;46.10
62575;DHT22;53112;45.602;11.904;2023-04-15T09:38:57;22.60;45.60
62575;DHT22;53112;45.602;11.904;2023-04-15T09:41:25;22.60;45.10
62575;DHT22;53112;45.602;11.904;2023-04-15T09:43:51;22.60;46.30
62575;DHT22;53112;45.602;11.904;2023-04-15T09:46:17;22.60;46.90
62575;DHT22;53112;45.602;11.904;2023-04-15T09:48:43;22.70;47.10
62575;DHT22;53112;45.602;11.904;2023-04-15T09:51:09;22.70;46.80
62575;DHT22;53112;45.602;11.904;2023-04-15T09:53:36;22.70;45.80
62575;DHT22;53112;45.602;11.904;2023-04-15T09:56:03;22.70;45.30
62575;DHT22;53112;45.602;11.904;2023-04-15T09:58:33;22.70;45.60
62575;DHT22;53112;45.602;11.904;2023-04-15T10:01:02;22.70;45.40
62575;DHT22;53112;45.602;11.904;2023-04-15T10:03:34;22.60;45.40
62575;DHT22;53112;45.602;11.904;2023-04-15T10:06:02;22.70;46.10
62575;DHT22;53112;45.602;11.904;2023-04-15T10:08:30;22.70;46.40
62575;DHT22;53112;45.602;11.904;2023-04-15T10:10:58;22.70;45.60
62575;DHT22;53112;45.602;11.904;2023-04-15T10:13:26;22.70;45.20
62575;DHT22;53112;45.602;11.904;2023-04-15T10:16:15;22.70;45.30
62575;DHT22;53112;45.602;11.904;2023-04-15T10:18:54;22.70;44.00
62575;DHT22;53112;45.602;11.904;2023-04-15T10:21:21;22.70;45.70
62575;DHT22;53112;45.602;11.904;2023-04-15T10:23:51;22.70;46.00
62575;DHT22;53112;45.602;11.904;2023-04-15T10:26:18;22.70;46.80
62575;DHT22;53112;45.602;11.904;2023-04-15T10:28:44;22.80;46.60
62575;DHT22;53112;45.602;11.904;2023-04-15T10:31:12;22.80;46.20
62575;DHT22;53112;45.602;11.904;2023-04-15T10:33:40;22.80;45.70
62575;DHT22;53112;45.602;11.904;2023-04-15T10:36:06;22.70;45.20
62575;DHT22;53112;45.602;11.904;2023-04-15T10:38:44;22.70;45.20
62575;DHT22;53112;45.602;11.904;2023-04-15T10:41:26;22.70;46.20
62575;DHT22;53112;45.602;11.904;2023-04-15T10:44:00;22.80;46.60
62575;DHT22;53112;45.602;11.904;2023-04-15T10:46:41;22.80;47.00
62575;DHT22;53112;45.602;11.904;2023-04-15T10:49:14;22.80;46.80
62575;DHT22;53112;45.602;11.904;2023-04-15T10:51:45;22.80;45.50
62575;DHT22;53112;45.602;11.904;2023-04-15T10:54:16;22.80;45.80
62575;DHT22;53112;45.602;11.904;2023-04-15T11:00:00;22.80;46.10
62575;DHT22;53112;45.602;11.904;2023-04-15T11:03:05;22.80;45.10
62575;DHT22;53112;45.602;11.904;2023-04-15T11:08:07;22.80;46.40
62575;DHT22;53112;45.602;11.904;2023-04-15T11:13:02;22.80;46.90
62575;DHT22;53112;45.602;11.904;2023-04-15T11:15:44;22.80;46.30
62575;DHT22;53112;45.602;11.904;2023-04-15T11:18:22;22.80;47.30
62575;DHT22;53112;45.602;11.904;2023-04-15T11:20:48;22.90;46.00
62575;DHT22;53112;45.602;11.904;2023-04-15T11:26:04;22.90;45.00
62575;DHT22;53112;45.602;11.904;2023-04-15T11:31:07;22.80;45.90
62575;DHT22;53112;45.602;11.904;2023-04-15T11:33:35;22.90;45.50
62575;DHT22;53112;45.602;11.904;2023-04-15T11:36:01;22.80;46.00
62575;DHT22;53112;45.602;11.904;2023-04-15T11:38:29;22.80;45.80
62575;DHT22;53112;45.602;11.904;2023-04-15T11:40:56;22.70;46.20
62575;DHT22;53112;45.602;11.904;2023-04-15T11:43:22;22.80;46.10
62575;DHT22;53112;45.602;11.904;2023-04-15T11:48:16;22.80;46.90
62575;DHT22;53112;45.602;11.904;2023-04-15T11:50:43;22.80;46.30
62575;DHT22;53112;45.602;11.904;2023-04-15T11:53:10;22.90;47.00
62575;DHT22;53112;45.602;11.904;2023-04-15T11:55:52;22.90;46.90
62575;DHT22;53112;45.602;11.904;2023-04-15T12:00:53;22.90;46.90
62575;DHT22;53112;45.602;11.904;2023-04-15T12:03:38;22.90;46.40
62575;DHT22;53112;45.602;11.904;2023-04-15T12:06:05;22.90;46.90
62575;DHT22;53112;45.602;11.904;2023-04-15T12:08:51;22.90;45.90
62575;DHT22;53112;45.602;11.904;2023-04-15T12:13:55;22.90;45.80
62575;DHT22;53112;45.602;11.904;2023-04-15T12:16:22;22.90;45.80
62575;DHT22;53112;45.602;11.904;2023-04-15T12:18:53;22.90;46.50
62575;DHT22;53112;45.602;11.904;2023-04-15T12:21:21;22.80;45.70
62575;DHT22;53112;45.602;11.904;2023-04-15T12:23:52;22.80;46.10
62575;DHT22;53112;45.602;11.904;2023-04-15T12:26:28;22.90;45.50
62575;DHT22;53112;45.602;11.904;2023-04-15T12:28:55;22.80;44.60
62575;DHT22;53112;45.602;11.904;2023-04-15T12:31:25;22.80;45.40
62575;DHT22;53112;45.602;11.904;2023-04-15T12:33:54;22.80;45.20
62575;DHT22;53112;45.602;11.904;2023-04-15T12:36:20;22.80;46.20
62575;DHT22;53112;45.602;11.904;2023-04-15T12:38:46;22.90;45.50
62575;DHT22;53112;45.602;11.904;2023-04-15T12:41:12;22.80;45.20
62575;DHT22;53112;45.602;11.904;2023-04-15T12:43:38;22.90;46.60
62575;DHT22;53112;45.602;11.904;2023-04-15T12:46:04;22.90;46.70
62575;DHT22;53112;45.602;11.904;2023-04-15T12:48:29;22.90;46.90
62575;DHT22;53112;45.602;11.904;2023-04-15T12:50:56;22.90;46.50
62575;DHT22;53112;45.602;11.904;2023-04-15T12:53:22;22.90;45.60
62575;DHT22;53112;45.602;11.904;2023-04-15T12:55:48;22.90;46.20
62575;DHT22;53112;45.602;11.904;2023-04-15T12:58:14;22.90;45.60
62575;DHT22;53112;45.602;11.904;2023-04-15T13:00:40;22.90;45.50
62575;DHT22;53112;45.602;11.904;2023-04-15T13:03:06;22.80;45.20
62575;DHT22;53112;45.602;11.904;2023-04-15T13:05:32;22.80;45.50
62575;DHT22;53112;45.602;11.904;2023-04-15T13:07:58;22.80;45.00
62575;DHT22;53112;45.602;11.904;2023-04-15T13:10:23;22.80;46.40
62575;DHT22;53112;45.602;11.904;2023-04-15T13:12:50;22.80;46.20
62575;DHT22;53112;45.602;11.904;2023-04-15T13:15:18;22.90;45.80
62575;DHT22;53112;45.602;11.904;2023-04-15T13:17:47;22.90;45.50
62575;DHT22;53112;45.602;11.904;2023-04-15T13:20:13;22.80;45.50
62575;DHT22;53112;45.602;11.904;2023-04-15T13:22:39;22.80;45.80
62575;DHT22;53112;45.602;11.904;2023-04-15T13:25:05;22.80;45.20
62575;DHT22;53112;45.602;11.904;2023-04-15T13:27:31;22.90;45.70
62575;DHT22;53112;45.602;11.904;2023-04-15T13:29:58;22.80;44.90
62575;DHT22;53112;45.602;11.904;2023-04-15T13:32:24;22.80;45.00
62575;DHT22;53112;45.602;11.904;2023-04-15T13:34:50;22.80;45.20
62575;DHT22;53112;45.602;11.904;2023-04-15T13:37:17;22.80;46.50
62575;DHT22;53112;45.602;11.904;2023-04-15T13:39:43;22.80;46.70
62575;DHT22;53112;45.602;11.904;2023-04-15T13:42:08;22.80;45.70
62575;DHT22;53112;45.602;11.904;2023-04-15T13:44:34;22.80;45.20
62575;DHT22;53112;45.602;11.904;2023-04-15T13:47:00;22.80;45.40
62575;DHT22;53112;45.602;11.904;2023-04-15T13:49:26;22.80;45.40
62575;DHT22;53112;45.602;11.904;2023-04-15T13:51:52;22.80;46.50
62575;DHT22;53112;45.602;11.904;2023-04-15T13:54:18;22.90;46.70
62575;DHT22;53112;45.602;11.904;2023-04-15T13:56:44;22.90;46.80
62575;DHT22;53112;45.602;11.904;2023-04-15T13:59:10;22.90;46.70
62575;DHT22;53112;45.602;11.904;2023-04-15T14:01:36;22.90;46.70
62575;DHT22;53112;45.602;11.904;2023-04-15T14:04:01;22.90;47.00
62575;DHT22;53112;45.602;11.904;2023-04-15T14:06:27;23.00;46.50
62575;DHT22;53112;45.602;11.904;2023-04-15T14:08:54;22.90;46.60
62575;DHT22;53112;45.602;11.904;2023-04-15T14:11:20;22.90;46.70
62575;DHT22;53112;45.602;11.904;2023-04-15T14:13:45;22.90;46.90
62575;DHT22;53112;45.602;11.904;2023-04-15T14:16:11;23.00;47.00
62575;DHT22;53112;45.602;11.904;2023-04-15T14:18:38;22.90;46.70
62575;DHT22;53112;45.602;11.904;2023-04-15T14:21:05;22.90;47.10
62575;DHT22;53112;45.602;11.904;2023-04-15T14:23:31;22.90;47.10
62575;DHT22;53112;45.602;11.904;2023-04-15T14:25:57;22.90;47.10
62575;DHT22;53112;45.602;11.904;2023-04-15T14:28:24;22.90;47.20
62575;DHT22;53112;45.602;11.904;2023-04-15T14:30:49;22.90;46.90
62575;DHT22;53112;45.602;11.904;2023-04-15T14:33:16;22.90;46.50
62575;DHT22;53112;45.602;11.904;2023-04-15T14:35:42;22.90;46.40
62575;DHT22;53112;45.602;11.904;2023-04-15T14:38:07;22.90;46.70
62575;DHT22;53112;45.602;11.904;2023-04-15T14:40:35;22.90;45.80
62575;DHT22;53112;45.602;11.904;2023-04-15T14:43:02;22.90;46.80
62575;DHT22;53112;45.602;11.904;2023-04-15T14:45:29;22.90;46.70
62575;DHT22;53112;45.602;11.904;2023-04-15T14:47:55;22.90;47.10
62575;DHT22;53112;45.602;11.904;2023-04-15T14:50:21;22.90;47.10
62575;DHT22;53112;45.602;11.904;2023-04-15T14:52:47;22.90;47.20
62575;DHT22;53112;45.602;11.904;2023-04-15T14:55:13;22.90;47.30
62575;DHT22;53112;45.602;11.904;2023-04-15T14:57:40;22.90;47.30
62575;DHT22;53112;45.602;11.904;2023-04-15T15:00:07;22.90;47.30
62575;DHT22;53112;45.602;11.904;2023-04-15T15:02:35;23.00;47.30
62575;DHT22;53112;45.602;11.904;2023-04-15T15:05:01;23.00;47.10
62575;DHT22;53112;45.602;11.904;2023-04-15T15:07:28;23.00;46.70
62575;DHT22;53112;45.602;11.904;2023-04-15T15:09:54;23.00;47.20
62575;DHT22;53112;45.602;11.904;2023-04-15T15:12:20;23.00;46.00
62575;DHT22;53112;45.602;11.904;2023-04-15T15:14:48;23.00;45.60
62575;DHT22;53112;45.602;11.904;2023-04-15T15:17:14;23.00;46.50
62575;DHT22;53112;45.602;11.904;2023-04-15T15:19:40;23.00;46.30
62575;DHT22;53112;45.602;11.904;2023-04-15T15:22:05;22.90;45.30
62575;DHT22;53112;45.602;11.904;2023-04-15T15:24:31;22.90;44.90
62575;DHT22;53112;45.602;11.904;2023-04-15T15:26:57;22.80;44.60
62575;DHT22;53112;45.602;11.904;2023-04-15T15:29:23;22.80;44.50
62575;DHT22;53112;45.602;11.904;2023-04-15T15:31:49;22.70;44.40
62575;DHT22;53112;45.602;11.904;2023-04-15T15:34:16;22.70;44.40
62575;DHT22;53112;45.602;11.904;2023-04-15T15:36:42;22.70;44.20
62575;DHT22;53112;45.602;11.904;2023-04-15T15:39:08;22.60;44.10